createdAt,value
2022-09-27T00:01:40.983Z,97349.48
2022-09-27T00:11:47.930Z,97340.75
2022-09-27T00:21:55.098Z,97333.29
2022-09-27T00:32:02.501Z,97320.44
2022-09-27T00:42:13.616Z,97300.92
2022-09-27T00:52:25.425Z,97294.96
2022-09-27T01:02:33.644Z,97288.44
2022-09-27T01:12:40.386Z,97279.96
2022-09-27T01:22:46.487Z,97263.36
2022-09-27T01:32:53.356Z,97253.67
2022-09-27T01:42:58.569Z,97240.63
2022-09-27T01:53:07.213Z,97224.33
2022-09-27T02:03:18.631Z,97210.39
2022-09-27T02:13:29.419Z,97193.45
2022-09-27T02:23:35.310Z,97181.90
2022-09-27T02:33:40.235Z,97173.90
2022-09-27T02:43:49.810Z,97167.86
2022-09-27T02:53:58.500Z,97165.86
2022-09-27T03:04:04.593Z,97153.18
2022-09-27T03:14:11.768Z,97147.02
2022-09-27T03:24:18.225Z,97146.20
2022-09-27T03:34:25.187Z,97136.89
2022-09-27T03:44:33.107Z,97122.00
2022-09-27T03:54:40.454Z,97115.62
2022-09-27T04:04:46.462Z,97105.73
2022-09-27T04:14:55.448Z,97098.16
2022-09-27T04:25:01.618Z,97081.83
2022-09-27T04:35:22.001Z,97079.72
2022-09-27T04:45:29.196Z,97085.72
2022-09-27T04:55:34.288Z,97087.06
2022-09-27T05:05:41.545Z,97089.20
2022-09-27T05:15:48.644Z,97085.51
2022-09-27T05:25:56.657Z,97076.49
2022-09-27T05:36:02.659Z,97063.11
2022-09-27T05:46:10.091Z,97059.91
2022-09-27T05:56:16.135Z,97051.73
2022-09-27T06:06:22.989Z,97054.23
2022-09-27T06:16:30.259Z,97063.36
2022-09-27T06:26:37.745Z,97063.85
2022-09-27T06:36:48.276Z,97057.47
2022-09-27T06:46:58.032Z,97042.40
2022-09-27T06:57:05.265Z,97036.55
2022-09-27T07:07:14.214Z,97037.91
2022-09-27T07:17:21.534Z,97036.22
2022-09-27T07:27:28.987Z,97044.08
2022-09-27T07:37:35.429Z,97037.88
2022-09-27T07:47:41.215Z,97039.10
2022-09-27T07:57:48.606Z,97036.80
2022-09-27T08:07:55.608Z,97031.90
2022-09-27T08:18:01.649Z,97031.64
2022-09-27T08:28:08.768Z,97025.56
2022-09-27T08:38:15.429Z,97011.16
2022-09-27T08:48:22.307Z,96989.35
2022-09-27T08:58:29.424Z,96984.55
2022-09-27T09:08:39.907Z,96972.84
2022-09-27T09:18:59.420Z,96969.64
2022-09-27T09:29:11.568Z,96960.04
2022-09-27T09:39:16.676Z,96961.20
2022-09-27T09:49:24.122Z,96953.91
2022-09-27T09:59:30.714Z,96946.91
2022-09-27T10:09:37.909Z,96934.43
2022-09-27T10:19:46.005Z,96918.85
2022-09-27T10:29:57.882Z,96901.84
2022-09-27T10:40:02.689Z,96881.42
2022-09-27T10:50:38.934Z,96877.85
2022-09-27T11:00:42.241Z,96869.68
2022-09-27T11:11:02.274Z,96862.71
2022-09-27T11:21:09.943Z,96853.39
2022-09-27T11:31:19.487Z,96849.17
2022-09-27T11:41:31.980Z,96831.59
2022-09-27T11:51:43.203Z,96828.09
2022-09-27T12:01:56.049Z,96819.48
2022-09-27T12:12:04.316Z,96810.29
2022-09-27T12:22:29.767Z,96801.61
2022-09-27T12:32:45.958Z,96798.97
2022-09-27T12:42:50.958Z,96788.19
2022-09-27T12:52:58.673Z,96780.92
2022-09-27T13:03:26.301Z,96768.71
2022-09-27T13:13:36.898Z,96760.14
2022-09-27T13:23:59.910Z,96754.59
2022-09-27T13:34:28.119Z,96752.10
2022-09-27T13:44:41.799Z,96749.80
2022-09-27T13:54:51.728Z,96754.11
2022-09-27T14:05:01.410Z,96753.30
2022-09-27T14:15:06.178Z,96765.16
2022-09-27T14:25:20.539Z,96800.01
2022-09-27T14:35:46.668Z,96830.23
2022-09-27T14:45:58.723Z,96866.45
2022-09-27T14:56:08.373Z,96874.19
2022-09-27T15:06:16.358Z,96860.73
2022-09-27T15:16:26.952Z,96845.97
2022-09-27T15:26:36.369Z,96846.83
2022-09-27T15:36:54.189Z,96844.98
2022-09-27T15:47:01.664Z,96848.34
2022-09-27T15:57:12.678Z,96848.34
2022-09-27T16:07:19.849Z,96841.41
2022-09-27T16:17:27.107Z,96847.52
2022-09-27T16:27:34.155Z,96841.56
2022-09-27T16:37:42.583Z,96844.65
2022-09-27T16:47:50.216Z,96844.86
2022-09-27T16:57:59.319Z,96859.60
2022-09-27T17:08:08.180Z,96878.05
2022-09-27T17:18:15.749Z,96887.55
2022-09-27T17:28:23.318Z,96905.84
2022-09-27T17:38:29.708Z,96909.10
2022-09-27T17:48:55.243Z,96909.89
2022-09-27T17:59:02.434Z,96910.89
2022-09-27T18:09:10.031Z,96921.45
2022-09-27T18:19:18.643Z,96926.82
2022-09-27T18:29:26.009Z,96925.56
2022-09-27T18:39:31.993Z,96925.35
2022-09-27T18:49:39.371Z,96929.21
2022-09-27T18:59:47.099Z,96920.20
2022-09-27T19:09:54.141Z,96923.45
2022-09-27T19:20:00.173Z,96922.20
2022-09-27T19:30:06.434Z,96919.41
2022-09-27T19:40:13.100Z,96925.15
2022-09-27T20:00:26.766Z,96922.73
2022-09-27T20:10:34.253Z,96919.34
2022-09-27T20:20:41.639Z,96913.19
2022-09-27T20:30:57.187Z,96921.86
2022-09-27T20:41:04.666Z,96933.27
2022-09-27T20:51:14.421Z,96936.59
2022-09-27T21:01:22.006Z,96951.48
2022-09-27T21:11:28.748Z,96948.30
2022-09-27T21:21:36.022Z,96947.22
2022-09-27T21:31:43.299Z,96950.35
2022-09-27T21:41:50.885Z,96955.61
2022-09-27T21:51:57.983Z,96949.14
2022-09-27T22:02:03.862Z,96955.52
2022-09-27T22:12:11.296Z,96966.41
2022-09-27T22:22:18.437Z,96972.85
2022-09-27T22:32:25.703Z,96965.48
2022-09-27T22:42:32.792Z,96963.44
2022-09-27T22:52:39.793Z,96965.82
2022-09-27T23:02:47.380Z,96967.77
2022-09-27T23:12:54.976Z,96969.56
2022-09-27T23:23:01.940Z,96965.66
2022-09-27T23:33:08.546Z,96962.52
2022-09-27T23:43:14.371Z,96964.67
2022-09-27T23:53:21.956Z,96958.50
